createdAt,value
2023-02-28T00:01:12.506Z,1.05
2023-02-28T00:03:41.618Z,0.90
2023-02-28T00:06:10.426Z,0.90
2023-02-28T00:08:38.398Z,1.05
2023-02-28T00:11:06.609Z,0.90
2023-02-28T00:13:35.098Z,0.90
2023-02-28T00:16:03.333Z,1.00
2023-02-28T00:18:31.613Z,1.08
2023-02-28T00:21:00.800Z,0.90
2023-02-28T00:23:28.690Z,1.10
2023-02-28T00:25:56.415Z,1.10
2023-02-28T00:28:24.275Z,0.88
2023-02-28T00:30:52.561Z,0.90
2023-02-28T00:33:20.317Z,1.10
2023-02-28T00:35:49.689Z,0.82
2023-02-28T00:38:19.594Z,0.90
2023-02-28T00:40:47.553Z,1.00
2023-02-28T00:43:15.252Z,0.80
2023-02-28T00:45:46.373Z,0.85
2023-02-28T00:48:14.093Z,0.95
2023-02-28T00:50:41.797Z,1.13
2023-02-28T00:53:09.512Z,0.90
2023-02-28T00:55:38.652Z,1.00
2023-02-28T00:58:06.384Z,1.00
2023-02-28T01:00:34.101Z,0.88
2023-02-28T01:03:01.794Z,0.80
2023-02-28T01:05:29.585Z,1.00
2023-02-28T01:07:58.149Z,1.02
2023-02-28T01:10:26.619Z,0.98
2023-02-28T01:12:55.713Z,1.00
2023-02-28T01:15:23.586Z,0.90
2023-02-28T01:17:51.267Z,1.10
2023-02-28T01:20:19.184Z,0.93
2023-02-28T01:22:47.481Z,0.90
2023-02-28T01:25:15.204Z,1.20
2023-02-28T01:27:42.898Z,1.10
2023-02-28T01:30:13.019Z,1.10
2023-02-28T01:32:40.696Z,1.08
2023-02-28T01:35:08.853Z,0.90
2023-02-28T01:37:36.810Z,1.10
2023-02-28T01:40:05.417Z,0.93
2023-02-28T01:42:33.099Z,1.00
2023-02-28T01:45:08.529Z,1.05
2023-02-28T01:47:40.466Z,1.10
2023-02-28T01:50:11.787Z,1.02
2023-02-28T01:52:39.454Z,1.10
2023-02-28T01:55:07.822Z,1.10
2023-02-28T01:57:39.252Z,1.00
2023-02-28T02:00:09.937Z,0.95
2023-02-28T02:02:42.277Z,1.02
2023-02-28T02:05:11.841Z,0.90
2023-02-28T02:07:40.716Z,1.00
2023-02-28T02:10:13.085Z,0.90
2023-02-28T02:12:51.811Z,1.02
2023-02-28T02:15:21.903Z,1.20
2023-02-28T02:17:52.875Z,0.88
2023-02-28T02:20:35.709Z,1.20
2023-02-28T02:23:38.934Z,0.90
2023-02-28T02:26:17.490Z,1.00
2023-02-28T02:29:17.683Z,0.90
2023-02-28T02:32:01.283Z,0.90
2023-02-28T02:34:40.184Z,0.93
2023-02-28T02:37:18.187Z,0.80
2023-02-28T02:39:50.247Z,1.00
2023-02-28T02:42:19.801Z,1.17
2023-02-28T02:44:49.783Z,0.80
2023-02-28T02:47:19.811Z,1.15
2023-02-28T02:49:50.091Z,1.00
2023-02-28T02:52:18.879Z,1.10
2023-02-28T02:54:47.397Z,0.95
2023-02-28T02:57:26.713Z,0.85
2023-02-28T02:59:54.656Z,1.08
2023-02-28T03:02:22.444Z,1.20
2023-02-28T03:04:53.693Z,1.10
2023-02-28T03:07:22.904Z,0.80
2023-02-28T03:09:54.525Z,1.00
2023-02-28T03:12:22.251Z,0.90
2023-02-28T03:14:57.966Z,1.10
2023-02-28T03:17:37.790Z,1.20
2023-02-28T03:20:10.630Z,1.10
2023-02-28T03:22:50.307Z,0.90
2023-02-28T03:25:20.804Z,1.02
2023-02-28T03:27:52.041Z,0.90
2023-02-28T03:30:22.090Z,1.10
2023-02-28T03:32:52.874Z,1.00
2023-02-28T03:35:23.670Z,1.00
2023-02-28T03:37:52.593Z,1.10
2023-02-28T03:40:21.545Z,1.00
2023-02-28T03:42:51.887Z,0.90
2023-02-28T03:45:21.267Z,1.10
2023-02-28T03:47:51.000Z,1.02
2023-02-28T03:50:20.292Z,1.20
2023-02-28T03:52:51.577Z,1.08
2023-02-28T03:55:19.458Z,1.10
2023-02-28T03:57:53.117Z,1.08
2023-02-28T04:00:21.906Z,1.00
2023-02-28T04:02:53.427Z,1.17
2023-02-28T04:05:21.205Z,1.00
2023-02-28T04:07:50.196Z,1.00
2023-02-28T04:10:18.003Z,1.00
2023-02-28T04:12:45.743Z,1.00
2023-02-28T04:15:13.446Z,1.10
2023-02-28T04:17:41.123Z,1.10
2023-02-28T04:20:11.329Z,1.10
2023-02-28T04:22:39.049Z,1.20
2023-02-28T04:25:09.299Z,1.00
2023-02-28T04:27:37.212Z,1.20
2023-02-28T04:30:05.427Z,1.00
2023-02-28T04:32:33.179Z,1.00
2023-02-28T04:35:00.848Z,1.05
2023-02-28T04:37:29.786Z,1.00
2023-02-28T04:39:57.483Z,1.10
2023-02-28T04:42:26.473Z,1.00
2023-02-28T04:44:54.140Z,1.00
2023-02-28T04:47:21.811Z,1.15
2023-02-28T04:49:49.537Z,0.90
2023-02-28T04:52:17.225Z,1.40
2023-02-28T04:54:44.918Z,1.10
2023-02-28T04:57:12.580Z,1.00
2023-02-28T04:59:41.574Z,1.00
2023-02-28T05:02:09.298Z,1.08
2023-02-28T05:04:37.126Z,1.10
2023-02-28T05:07:04.954Z,1.20
2023-02-28T05:09:33.857Z,1.05
2023-02-28T05:12:01.554Z,1.10
2023-02-28T05:14:29.205Z,0.95
2023-02-28T05:16:58.195Z,1.10
2023-02-28T05:19:25.903Z,1.10
2023-02-28T05:21:54.228Z,1.02
2023-02-28T05:24:23.703Z,1.08
2023-02-28T05:26:52.752Z,1.10
2023-02-28T05:29:20.493Z,1.10
2023-02-28T05:31:48.374Z,1.20
2023-02-28T05:34:17.428Z,1.13
2023-02-28T05:36:45.320Z,1.20
2023-02-28T05:39:14.429Z,1.10
2023-02-28T05:41:42.714Z,0.93
2023-02-28T05:44:10.413Z,1.05
2023-02-28T05:46:38.108Z,0.90
2023-02-28T05:49:05.893Z,1.10
2023-02-28T05:51:37.185Z,1.15
2023-02-28T05:54:05.353Z,1.08
2023-02-28T05:56:33.069Z,1.27
2023-02-28T05:59:00.761Z,1.10
2023-02-28T06:01:34.144Z,1.20
2023-02-28T06:04:02.122Z,1.15
2023-02-28T06:06:30.411Z,0.93
2023-02-28T06:08:59.476Z,1.30
2023-02-28T06:11:29.056Z,1.10
2023-02-28T06:13:57.535Z,1.30
2023-02-28T06:16:25.400Z,1.20
2023-02-28T06:18:53.526Z,1.10
2023-02-28T06:21:21.205Z,1.05
2023-02-28T06:23:48.874Z,1.20
2023-02-28T06:26:17.925Z,1.15
2023-02-28T06:28:45.580Z,1.10
2023-02-28T06:31:14.621Z,1.17
2023-02-28T06:33:43.288Z,1.23
2023-02-28T06:36:11.456Z,1.10
2023-02-28T06:38:39.150Z,1.10
2023-02-28T06:41:07.078Z,1.10
2023-02-28T06:43:37.137Z,1.20
2023-02-28T06:46:06.215Z,1.00
2023-02-28T06:48:35.968Z,1.23
2023-02-28T06:51:04.887Z,1.10
2023-02-28T06:53:32.668Z,1.15
2023-02-28T06:56:00.340Z,1.23
2023-02-28T06:58:28.052Z,1.20
2023-02-28T07:00:57.118Z,1.10
2023-02-28T07:03:24.944Z,1.00
2023-02-28T07:05:52.839Z,1.20
2023-02-28T07:08:20.509Z,1.20
2023-02-28T07:10:48.200Z,1.25
2023-02-28T07:13:15.874Z,1.10
2023-02-28T07:15:44.296Z,1.00
2023-02-28T07:18:13.418Z,1.25
2023-02-28T07:20:41.095Z,1.20
2023-02-28T07:23:08.756Z,1.15
2023-02-28T07:25:36.443Z,1.00
2023-02-28T07:28:04.162Z,0.98
2023-02-28T07:30:31.865Z,1.42
2023-02-28T07:32:59.552Z,1.40
2023-02-28T07:35:28.536Z,1.20
2023-02-28T07:37:56.208Z,1.15
2023-02-28T07:40:23.927Z,1.30
2023-02-28T07:42:51.563Z,1.40
2023-02-28T07:45:20.424Z,1.48
2023-02-28T07:47:48.094Z,1.10
2023-02-28T07:50:16.778Z,1.20
2023-02-28T07:52:45.751Z,1.25
2023-02-28T07:55:14.531Z,1.40
2023-02-28T07:57:42.445Z,1.38
2023-02-28T08:00:11.742Z,1.30
2023-02-28T08:02:39.447Z,1.23
2023-02-28T08:05:08.272Z,1.17
2023-02-28T08:07:36.201Z,1.20
2023-02-28T08:10:06.534Z,1.40
2023-02-28T08:12:34.341Z,1.13
2023-02-28T08:15:02.079Z,1.33
2023-02-28T08:17:29.927Z,1.40
2023-02-28T08:19:58.066Z,1.10
2023-02-28T08:22:25.781Z,1.25
2023-02-28T08:24:53.409Z,1.35
2023-02-28T08:27:22.406Z,1.40
2023-02-28T08:29:50.278Z,1.20
2023-02-28T08:32:29.333Z,1.23
2023-02-28T08:34:57.864Z,1.42
2023-02-28T08:37:25.651Z,1.40
2023-02-28T08:39:56.146Z,1.42
2023-02-28T08:42:25.465Z,1.30
2023-02-28T08:44:53.140Z,1.33
2023-02-28T08:47:20.933Z,1.40
2023-02-28T08:49:49.636Z,1.33
2023-02-28T08:52:17.316Z,1.40
2023-02-28T08:54:45.024Z,1.40
2023-02-28T08:57:12.665Z,1.40
2023-02-28T08:59:41.756Z,1.23
2023-02-28T09:02:10.676Z,1.33
2023-02-28T09:04:38.366Z,1.50
2023-02-28T09:07:06.058Z,1.30
2023-02-28T09:09:33.718Z,1.50
2023-02-28T09:12:01.430Z,1.50
2023-02-28T09:14:29.302Z,1.40
2023-02-28T09:16:58.309Z,1.50
2023-02-28T09:19:26.070Z,1.30
2023-02-28T09:21:53.785Z,1.40
2023-02-28T09:24:21.534Z,1.40
2023-02-28T09:26:56.801Z,1.40
2023-02-28T09:29:31.700Z,1.25
2023-02-28T09:32:00.940Z,1.30
2023-02-28T09:34:28.791Z,1.40
2023-02-28T09:36:56.645Z,1.55
2023-02-28T09:39:24.674Z,1.40
2023-02-28T09:41:53.634Z,1.40
2023-02-28T09:44:24.507Z,1.30
2023-02-28T09:46:54.845Z,1.50
2023-02-28T09:49:25.482Z,1.40
2023-02-28T09:51:55.401Z,1.38
2023-02-28T09:54:23.769Z,1.40
2023-02-28T09:56:54.097Z,1.30
2023-02-28T09:59:33.991Z,1.50
2023-02-28T10:02:06.464Z,1.55
2023-02-28T10:04:42.322Z,1.40
2023-02-28T10:07:20.283Z,1.40
2023-02-28T10:09:48.599Z,1.42
2023-02-28T10:12:16.285Z,1.40
2023-02-28T10:14:46.215Z,1.40
2023-02-28T10:17:15.392Z,1.42
2023-02-28T10:19:48.656Z,1.30
2023-02-28T10:22:18.651Z,1.33
2023-02-28T10:24:47.116Z,1.40
2023-02-28T10:27:16.291Z,1.50
2023-02-28T10:29:45.278Z,1.38
2023-02-28T10:32:14.390Z,1.42
2023-02-28T10:34:43.574Z,1.40
2023-02-28T10:37:11.839Z,1.40
2023-02-28T10:39:41.610Z,1.35
2023-02-28T10:42:21.740Z,1.13
2023-02-28T10:44:49.516Z,1.30
2023-02-28T10:47:17.898Z,1.25
2023-02-28T10:49:50.998Z,1.40
2023-02-28T10:52:34.853Z,1.20
2023-02-28T10:55:16.678Z,1.30
2023-02-28T10:57:44.352Z,1.70
2023-02-28T11:00:16.490Z,1.13
2023-02-28T11:02:45.553Z,1.10
2023-02-28T11:05:28.430Z,1.13
2023-02-28T11:07:56.454Z,1.10
2023-02-28T11:10:26.541Z,1.30
2023-02-28T11:12:57.676Z,1.27
2023-02-28T11:15:27.464Z,1.25
2023-02-28T11:17:55.951Z,1.20
2023-02-28T11:20:24.468Z,1.40
2023-02-28T11:22:53.451Z,1.30
2023-02-28T11:25:23.232Z,1.40
2023-02-28T11:27:51.480Z,1.20
2023-02-28T11:30:26.883Z,1.40
2023-02-28T11:32:54.779Z,1.20
2023-02-28T11:35:25.405Z,1.30
2023-02-28T11:37:54.526Z,1.10
2023-02-28T11:40:25.796Z,1.20
2023-02-28T11:42:59.372Z,1.30
2023-02-28T11:45:43.714Z,1.15
2023-02-28T11:48:14.921Z,1.30
2023-02-28T11:50:47.857Z,1.13
2023-02-28T11:53:21.960Z,1.10
2023-02-28T11:55:51.069Z,1.40
2023-02-28T11:58:48.036Z,1.20
2023-02-28T12:01:25.196Z,1.00
2023-02-28T12:04:02.021Z,1.10
2023-02-28T12:06:33.076Z,1.38
2023-02-28T12:09:19.854Z,1.20
2023-02-28T12:11:52.748Z,1.30
2023-02-28T12:14:31.679Z,1.20
2023-02-28T12:17:04.404Z,1.40
2023-02-28T12:19:33.779Z,1.33
2023-02-28T12:22:30.804Z,1.20
2023-02-28T12:25:23.151Z,1.20
2023-02-28T12:27:51.975Z,1.30
2023-02-28T12:30:21.838Z,1.27
2023-02-28T12:32:50.518Z,1.10
2023-02-28T12:35:20.025Z,1.20
2023-02-28T12:37:49.308Z,1.00
2023-02-28T12:40:20.221Z,1.08
2023-02-28T12:42:48.803Z,1.20
2023-02-28T12:45:19.177Z,1.20
2023-02-28T12:47:47.150Z,1.10
2023-02-28T12:50:15.631Z,1.10
2023-02-28T12:52:48.174Z,1.23
2023-02-28T12:55:19.391Z,1.00
2023-02-28T12:57:50.066Z,1.30
2023-02-28T13:00:18.987Z,1.15
2023-02-28T13:02:55.923Z,1.20
2023-02-28T13:05:45.979Z,1.02
2023-02-28T13:08:35.288Z,1.10
2023-02-28T13:11:07.650Z,1.23
2023-02-28T13:13:40.868Z,1.00
2023-02-28T13:16:09.411Z,1.15
2023-02-28T13:18:40.398Z,1.10
2023-02-28T13:21:08.853Z,1.17
2023-02-28T13:23:42.258Z,1.27
2023-02-28T13:26:13.878Z,1.10
2023-02-28T13:29:26.586Z,1.20
2023-02-28T13:32:31.073Z,1.15
2023-02-28T13:35:32.590Z,1.00
2023-02-28T13:38:33.910Z,1.00
2023-02-28T13:41:43.317Z,1.10
2023-02-28T13:44:12.783Z,1.10
2023-02-28T13:47:13.994Z,1.00
2023-02-28T13:49:42.307Z,1.20
2023-02-28T13:52:15.972Z,1.02
2023-02-28T13:54:47.513Z,0.90
2023-02-28T13:57:22.826Z,0.90
2023-02-28T14:00:07.683Z,1.10
2023-02-28T14:03:23.502Z,0.88
2023-02-28T14:06:09.309Z,1.20
2023-02-28T14:08:36.995Z,1.10
2023-02-28T14:11:06.237Z,1.00
2023-02-28T14:13:45.785Z,1.10
2023-02-28T14:16:15.208Z,1.00
2023-02-28T14:18:43.545Z,0.90
2023-02-28T14:21:18.693Z,1.00
2023-02-28T14:24:12.996Z,0.90
2023-02-28T14:27:13.764Z,1.25
2023-02-28T14:30:01.191Z,1.20
2023-02-28T14:32:32.232Z,1.00
2023-02-28T14:35:02.778Z,1.00
2023-02-28T14:37:31.667Z,1.10
2023-02-28T14:39:59.584Z,1.00
2023-02-28T14:42:30.977Z,1.00
2023-02-28T14:44:58.807Z,0.90
2023-02-28T14:47:28.969Z,1.00
2023-02-28T14:49:58.042Z,1.08
2023-02-28T14:52:28.082Z,1.10
2023-02-28T14:54:56.583Z,0.98
2023-02-28T14:57:25.268Z,0.80
2023-02-28T14:59:59.990Z,1.00
2023-02-28T15:02:28.130Z,0.93
2023-02-28T15:04:58.801Z,1.00
2023-02-28T15:07:30.121Z,0.95
2023-02-28T15:10:18.528Z,0.82
2023-02-28T15:12:50.063Z,1.10
2023-02-28T15:15:18.022Z,0.90
2023-02-28T15:17:47.283Z,0.80
2023-02-28T15:20:16.628Z,1.00
2023-02-28T15:22:44.356Z,1.10
2023-02-28T15:25:12.303Z,1.08
2023-02-28T15:27:42.953Z,0.93
2023-02-28T15:30:15.120Z,1.00
2023-02-28T15:32:42.893Z,1.08
2023-02-28T15:35:22.248Z,1.00
2023-02-28T15:37:51.305Z,0.80
2023-02-28T15:40:19.932Z,0.90
2023-02-28T15:43:10.089Z,1.20
2023-02-28T15:45:41.810Z,0.90
2023-02-28T15:48:17.048Z,0.82
2023-02-28T15:50:46.105Z,0.80
2023-02-28T15:53:15.726Z,0.80
2023-02-28T15:55:43.406Z,1.00
2023-02-28T15:58:12.522Z,0.82
2023-02-28T16:00:40.181Z,0.93
2023-02-28T16:03:26.217Z,1.00
2023-02-28T16:06:26.638Z,0.90
2023-02-28T16:08:55.602Z,1.00
2023-02-28T16:11:23.279Z,0.90
2023-02-28T16:13:50.966Z,0.90
2023-02-28T16:16:18.921Z,1.02
2023-02-28T16:18:46.711Z,0.70
2023-02-28T16:21:14.376Z,0.90
2023-02-28T16:23:42.547Z,0.85
2023-02-28T16:26:14.218Z,1.00
2023-02-28T16:28:41.871Z,0.80
2023-02-28T16:31:11.789Z,0.93
2023-02-28T16:33:39.539Z,1.00
2023-02-28T16:36:08.041Z,0.95
2023-02-28T16:38:35.755Z,1.00
2023-02-28T16:41:03.439Z,0.90
2023-02-28T16:43:33.239Z,0.85
2023-02-28T16:46:02.277Z,1.00
2023-02-28T16:48:31.666Z,1.00
2023-02-28T16:50:59.328Z,1.00
2023-02-28T16:53:27.045Z,0.98
2023-02-28T16:55:54.759Z,1.00
2023-02-28T16:58:24.406Z,1.00
2023-02-28T17:00:53.943Z,1.10
2023-02-28T17:03:32.660Z,1.00
2023-02-28T17:06:01.058Z,0.85
2023-02-28T17:08:30.415Z,0.88
2023-02-28T17:10:58.186Z,0.90
2023-02-28T17:13:25.874Z,0.90
2023-02-28T17:15:54.986Z,0.73
2023-02-28T17:18:22.933Z,0.90
2023-02-28T17:20:50.740Z,0.75
2023-02-28T17:23:18.507Z,1.02
2023-02-28T17:25:56.307Z,0.80
2023-02-28T17:28:24.943Z,1.00
2023-02-28T17:30:52.727Z,0.95
2023-02-28T17:33:21.902Z,1.00
2023-02-28T17:35:49.641Z,0.90
2023-02-28T17:38:18.295Z,0.98
2023-02-28T17:40:46.131Z,0.98
2023-02-28T17:43:13.998Z,0.80
2023-02-28T17:45:41.773Z,1.00
2023-02-28T17:48:11.265Z,1.00
2023-02-28T17:50:40.277Z,0.95
2023-02-28T17:53:07.967Z,1.10
2023-02-28T17:55:35.673Z,1.00
2023-02-28T17:58:03.872Z,0.90
2023-02-28T18:00:33.187Z,0.90
2023-02-28T18:03:01.172Z,0.90
2023-02-28T18:05:28.834Z,0.80
2023-02-28T18:07:57.976Z,1.13
2023-02-28T18:10:25.640Z,0.90
2023-02-28T18:12:54.732Z,0.88
2023-02-28T18:15:23.214Z,0.90
2023-02-28T18:17:50.986Z,0.88
2023-02-28T18:20:19.001Z,0.80
2023-02-28T18:22:47.471Z,0.98
2023-02-28T18:25:17.789Z,0.82
2023-02-28T18:27:53.988Z,0.82
2023-02-28T18:30:22.095Z,1.13
2023-02-28T18:32:49.846Z,0.90
2023-02-28T18:35:34.984Z,0.98
2023-02-28T18:38:07.668Z,0.80
2023-02-28T18:40:36.888Z,0.80
2023-02-28T18:43:04.719Z,0.95
2023-02-28T18:45:32.386Z,1.00
2023-02-28T18:48:00.071Z,0.82
2023-02-28T18:50:27.877Z,1.00
2023-02-28T18:52:57.778Z,0.90
2023-02-28T18:55:27.658Z,0.90
2023-02-28T18:57:56.737Z,0.90
2023-02-28T19:00:25.726Z,0.90
2023-02-28T19:02:53.534Z,0.85
2023-02-28T19:05:21.691Z,0.93
2023-02-28T19:07:49.419Z,1.02
2023-02-28T19:10:17.451Z,0.90
2023-02-28T19:12:45.480Z,1.20
2023-02-28T19:15:14.629Z,1.00
2023-02-28T19:17:42.294Z,0.90
2023-02-28T19:20:11.201Z,0.90
2023-02-28T19:22:39.083Z,1.00
2023-02-28T19:25:07.442Z,0.90
2023-02-28T19:27:35.209Z,0.80
2023-02-28T19:30:04.189Z,1.00
2023-02-28T19:32:33.318Z,0.90
2023-02-28T19:35:01.077Z,0.90
2023-02-28T19:37:28.774Z,1.02
2023-02-28T19:39:57.347Z,1.00
2023-02-28T19:42:25.297Z,1.00
2023-02-28T19:44:52.983Z,0.90
2023-02-28T19:47:20.636Z,0.80
2023-02-28T19:49:53.180Z,0.90
2023-02-28T19:52:21.239Z,1.17
2023-02-28T19:54:48.998Z,1.10
2023-02-28T19:57:16.704Z,1.02
2023-02-28T19:59:44.801Z,0.93
2023-02-28T20:02:14.381Z,0.80
2023-02-28T20:04:42.163Z,1.10
2023-02-28T20:07:11.210Z,0.85
2023-02-28T20:09:39.628Z,1.08
2023-02-28T20:12:17.862Z,1.05
2023-02-28T20:14:51.072Z,1.05
2023-02-28T20:17:18.740Z,0.95
2023-02-28T20:19:46.751Z,1.20
2023-02-28T20:22:15.743Z,1.02
2023-02-28T20:24:43.455Z,1.30
2023-02-28T20:27:11.202Z,0.90
2023-02-28T20:29:40.252Z,1.00
2023-02-28T20:32:08.692Z,1.02
2023-02-28T20:34:36.446Z,0.90
2023-02-28T20:37:04.100Z,1.00
2023-02-28T20:39:33.199Z,1.00
2023-02-28T20:42:00.855Z,1.10
2023-02-28T20:44:28.653Z,0.88
2023-02-28T20:46:56.356Z,1.05
2023-02-28T20:49:24.065Z,0.98
2023-02-28T20:51:51.717Z,1.13
2023-02-28T20:54:19.970Z,1.00
2023-02-28T20:56:48.975Z,1.00
2023-02-28T20:59:16.674Z,1.10
2023-02-28T21:01:44.457Z,1.00
2023-02-28T21:04:12.270Z,1.00
2023-02-28T21:06:42.879Z,0.80
2023-02-28T21:09:11.213Z,1.20
2023-02-28T21:11:39.387Z,1.10
2023-02-28T21:14:10.123Z,1.05
2023-02-28T21:16:38.253Z,1.00
2023-02-28T21:19:06.020Z,1.10
2023-02-28T21:21:35.010Z,1.10
2023-02-28T21:24:02.820Z,0.95
2023-02-28T21:26:30.697Z,0.90
2023-02-28T21:28:59.286Z,0.88
2023-02-28T21:31:30.053Z,1.10
2023-02-28T21:33:58.380Z,1.00
2023-02-28T21:36:27.030Z,1.20
2023-02-28T21:38:56.699Z,1.23
2023-02-28T21:41:24.962Z,1.10
2023-02-28T21:43:53.108Z,1.10
2023-02-28T21:46:22.098Z,1.20
2023-02-28T21:48:51.176Z,0.90
2023-02-28T21:51:20.186Z,1.20
2023-02-28T21:53:48.163Z,1.13
2023-02-28T21:56:16.804Z,1.23
2023-02-28T21:58:44.510Z,1.20
2023-02-28T22:01:12.872Z,1.08
2023-02-28T22:03:40.551Z,1.25
2023-02-28T22:06:14.565Z,1.00
2023-02-28T22:08:42.489Z,1.17
2023-02-28T22:11:11.981Z,1.27
2023-02-28T22:13:39.784Z,1.20
2023-02-28T22:16:08.690Z,1.00
2023-02-28T22:18:36.480Z,1.00
2023-02-28T22:21:04.385Z,0.95
2023-02-28T22:23:33.500Z,1.10
2023-02-28T22:26:01.577Z,1.20
2023-02-28T22:28:30.336Z,1.10
2023-02-28T22:30:58.239Z,1.00
2023-02-28T22:33:26.115Z,1.20
2023-02-28T22:35:53.819Z,1.08
2023-02-28T22:38:22.598Z,1.20
2023-02-28T22:40:51.608Z,1.10
2023-02-28T22:43:19.306Z,1.20
2023-02-28T22:45:46.969Z,1.00
2023-02-28T22:48:14.946Z,1.25
2023-02-28T22:50:42.830Z,1.30
2023-02-28T22:53:10.473Z,1.20
2023-02-28T22:55:38.170Z,1.30
2023-02-28T22:58:07.147Z,1.10
2023-02-28T23:00:34.821Z,1.33
2023-02-28T23:03:02.502Z,1.23
2023-02-28T23:05:31.291Z,1.10
2023-02-28T23:08:00.954Z,1.20
2023-02-28T23:10:28.602Z,1.25
2023-02-28T23:12:56.249Z,1.15
2023-02-28T23:15:25.304Z,1.20
2023-02-28T23:17:52.981Z,1.20
2023-02-28T23:20:21.681Z,1.20
2023-02-28T23:22:50.483Z,1.27
2023-02-28T23:25:20.509Z,1.15
2023-02-28T23:27:48.293Z,1.20
2023-02-28T23:30:16.730Z,1.13
2023-02-28T23:32:46.123Z,1.10
2023-02-28T23:35:13.858Z,1.42
2023-02-28T23:37:41.558Z,1.30
2023-02-28T23:40:11.650Z,1.20
2023-02-28T23:42:39.313Z,1.13
2023-02-28T23:45:08.493Z,1.40
2023-02-28T23:47:36.378Z,1.10
2023-02-28T23:50:06.091Z,1.10
2023-02-28T23:52:33.756Z,1.30
2023-02-28T23:55:02.008Z,1.40
2023-02-28T23:57:29.821Z,1.27
2023-02-28T23:59:57.503Z,1.30
